Time;durP1;ratioP1;P1;durP2;ratioP2;P2;SDS_P1;SDS_P2;PMS_P1;PMS_P2;Temp;Humidity;BMP_temperature;BMP_pressure;BME280_temperature;BME280_humidity;BME280_pressure;Samples;Min_cycle;Max_cycle;Signal;HPM_P1;HPM_P2
2021/10/27 00:01:57;;;;;;;9.23;5.60;;;8.30;99.90;;;;;;4178369;28;20500;-78
2021/10/27 00:03:59;;;;;;;8.97;5.63;;;8.30;99.90;;;;;;4179151;28;20473;-78
2021/10/27 00:06:01;;;;;;;11.20;5.90;;;8.30;99.90;;;;;;4177733;28;20488;-78
2021/10/27 00:08:03;;;;;;;10.83;6.50;;;8.20;99.90;;;;;;4171998;28;20545;-77
2021/10/27 00:10:05;;;;;;;9.47;6.30;;;8.20;99.90;;;;;;4171455;28;20457;-77
2021/10/27 00:12:09;;;;;;;11.07;5.80;;;8.20;99.90;;;;;;4169026;28;20492;-76
2021/10/27 00:14:11;;;;;;;9.00;5.43;;;8.20;99.90;;;;;;4164622;28;20457;-76
2021/10/27 00:16:13;;;;;;;10.50;5.90;;;8.10;99.90;;;;;;4163771;28;20469;-77
2021/10/27 00:18:15;;;;;;;9.40;5.60;;;8.20;99.90;;;;;;4170016;28;20469;-76
2021/10/27 00:20:17;;;;;;;9.20;5.27;;;8.10;99.90;;;;;;4165416;28;20461;-77
2021/10/27 00:22:18;;;;;;;12.37;6.27;;;8.10;99.90;;;;;;4177038;28;20922;-76
2021/10/27 00:24:20;;;;;;;12.20;5.90;;;8.10;99.90;;;;;;4160647;28;20580;-76
2021/10/27 00:26:22;;;;;;;10.50;6.23;;;8.10;99.90;;;;;;4176004;28;20476;-76
2021/10/27 00:28:25;;;;;;;9.30;5.90;;;8.00;99.90;;;;;;4174063;28;20545;-78
2021/10/27 00:30:27;;;;;;;10.27;5.73;;;8.10;99.90;;;;;;4168929;28;20726;-77
2021/10/27 00:32:29;;;;;;;9.90;5.87;;;8.00;99.90;;;;;;4164670;28;20543;-76
2021/10/27 00:34:30;;;;;;;9.80;5.97;;;8.00;99.90;;;;;;4164654;28;20852;-76
2021/10/27 00:36:32;;;;;;;10.17;5.90;;;8.00;99.90;;;;;;4161469;28;21030;-76
2021/10/27 00:38:34;;;;;;;10.17;6.70;;;8.00;99.90;;;;;;4166524;28;20527;-77
2021/10/27 00:40:36;;;;;;;11.90;6.43;;;8.00;99.90;;;;;;4163512;28;20501;-77
2021/10/27 00:42:37;;;;;;;9.17;5.60;;;8.00;99.90;;;;;;4159183;28;20904;-76
2021/10/27 00:44:42;;;;;;;11.10;6.20;;;7.90;99.90;;;;;;4165513;28;20492;-78
2021/10/27 00:46:43;;;;;;;10.10;6.20;;;7.90;99.90;;;;;;4163629;28;20461;-78
2021/10/27 00:48:45;;;;;;;10.93;6.43;;;7.90;99.90;;;;;;4164838;28;20547;-77
2021/10/27 00:50:47;;;;;;;14.67;6.73;;;7.90;99.90;;;;;;4162493;28;20523;-77
2021/10/27 00:52:49;;;;;;;11.07;6.57;;;7.90;99.90;;;;;;4160615;28;20985;-77
2021/10/27 00:54:51;;;;;;;10.27;6.00;;;7.90;99.90;;;;;;4166458;28;20462;-76
2021/10/27 00:56:54;;;;;;;8.93;5.63;;;7.90;99.90;;;;;;4172231;28;20504;-76
2021/10/27 00:58:56;;;;;;;10.63;6.13;;;7.90;99.90;;;;;;4164939;28;20464;-77
2021/10/27 01:01:02;;;;;;;10.77;5.73;;;7.90;99.90;;;;;;4163360;28;20524;-77
2021/10/27 01:03:04;;;;;;;13.13;6.77;;;7.90;99.90;;;;;;4165046;28;21063;-77
2021/10/27 01:05:06;;;;;;;9.73;6.07;;;7.90;99.90;;;;;;4164507;28;20510;-76
2021/10/27 01:07:08;;;;;;;10.20;6.23;;;7.80;99.90;;;;;;4164209;28;20476;-76
2021/10/27 01:09:10;;;;;;;9.83;6.13;;;7.80;99.90;;;;;;4173876;28;20496;-77
2021/10/27 01:11:12;;;;;;;11.47;6.33;;;7.80;99.90;;;;;;4171815;28;20473;-77
2021/10/27 01:13:14;;;;;;;9.27;6.33;;;7.80;99.90;;;;;;4167616;28;20546;-77
2021/10/27 01:15:16;;;;;;;12.33;6.17;;;7.80;99.90;;;;;;4163319;28;20911;-77
2021/10/27 01:17:19;;;;;;;11.93;6.67;;;7.80;99.90;;;;;;4164664;28;20496;-78
2021/10/27 01:19:21;;;;;;;9.67;6.23;;;7.80;99.90;;;;;;4164118;28;20498;-76
2021/10/27 01:21:26;;;;;;;12.13;6.50;;;7.80;99.90;;;;;;4163953;28;20469;-76
2021/10/27 01:23:27;;;;;;;9.00;6.00;;;7.80;99.90;;;;;;4164629;28;20563;-76
2021/10/27 01:25:29;;;;;;;10.63;6.40;;;7.80;99.90;;;;;;4162617;28;20453;-77
2021/10/27 01:27:31;;;;;;;10.60;5.90;;;7.80;99.90;;;;;;4167853;28;20484;-77
2021/10/27 01:29:33;;;;;;;10.97;6.30;;;7.80;99.90;;;;;;4163729;28;20471;-78
2021/10/27 01:31:35;;;;;;;10.47;6.23;;;7.70;99.90;;;;;;4163436;28;21008;-78
2021/10/27 01:33:37;;;;;;;9.50;5.60;;;7.70;99.90;;;;;;4163375;28;20499;-78
2021/10/27 01:35:39;;;;;;;14.47;7.30;;;7.70;99.90;;;;;;4168572;28;20460;-77
2021/10/27 01:37:44;;;;;;;14.33;6.70;;;7.70;99.90;;;;;;4169981;28;20478;-77
2021/10/27 01:39:46;;;;;;;10.93;6.43;;;7.70;99.90;;;;;;4163910;28;20450;-77
2021/10/27 01:41:48;;;;;;;12.00;7.03;;;7.70;99.90;;;;;;4159655;28;21084;-78
2021/10/27 01:43:51;;;;;;;12.10;7.33;;;7.70;99.90;;;;;;4165702;28;20931;-78
2021/10/27 01:45:53;;;;;;;10.30;6.53;;;7.70;99.90;;;;;;4164438;28;20912;-78
2021/10/27 01:47:55;;;;;;;13.97;6.73;;;7.70;99.90;;;;;;4164022;28;20849;-76
2021/10/27 01:49:57;;;;;;;11.50;6.00;;;7.70;99.90;;;;;;4157639;28;20520;-77
2021/10/27 01:52:01;;;;;;;12.57;6.57;;;7.70;99.90;;;;;;4160507;28;20838;-77
2021/10/27 01:54:05;;;;;;;13.83;6.73;;;7.60;99.90;;;;;;4159196;28;20476;-77
2021/10/27 01:56:07;;;;;;;11.07;6.77;;;7.70;99.90;;;;;;4162887;28;20464;-76
2021/10/27 01:58:09;;;;;;;12.47;7.20;;;7.60;99.90;;;;;;4149610;28;20775;-78
2021/10/27 02:00:12;;;;;;;10.63;6.23;;;7.60;99.90;;;;;;4163060;28;20922;-77
2021/10/27 02:02:13;;;;;;;10.83;6.40;;;7.60;99.90;;;;;;4164499;28;20526;-77
2021/10/27 02:04:15;;;;;;;13.77;6.93;;;7.60;99.90;;;;;;4165518;28;20625;-77
2021/10/27 02:06:17;;;;;;;11.93;6.07;;;7.60;99.90;;;;;;4160963;28;20484;-77
2021/10/27 02:08:19;;;;;;;11.40;6.70;;;7.60;99.90;;;;;;4147729;28;20547;-77
2021/10/27 02:10:22;;;;;;;10.83;6.00;;;7.60;99.90;;;;;;4151543;28;20814;-77
2021/10/27 02:12:24;;;;;;;10.83;5.70;;;7.50;99.90;;;;;;4170361;28;20577;-77
2021/10/27 02:14:26;;;;;;;11.73;6.57;;;7.50;99.90;;;;;;4168055;28;20946;-77
2021/10/27 02:16:28;;;;;;;12.13;6.87;;;7.50;99.90;;;;;;4162806;28;20457;-77
2021/10/27 02:18:30;;;;;;;10.50;6.03;;;7.50;99.90;;;;;;4170669;28;20455;-77
2021/10/27 02:20:32;;;;;;;11.47;6.83;;;7.50;99.90;;;;;;4169970;28;20469;-78
2021/10/27 02:22:34;;;;;;;11.10;6.70;;;7.50;99.90;;;;;;4170453;28;20548;-77
2021/10/27 02:24:36;;;;;;;9.77;6.00;;;7.50;99.90;;;;;;4167159;28;20468;-77
2021/10/27 02:26:39;;;;;;;15.70;6.80;;;7.50;99.90;;;;;;4172363;28;20464;-77
2021/10/27 02:28:41;;;;;;;13.27;7.77;;;7.50;99.90;;;;;;4173468;28;20504;-77
2021/10/27 02:30:43;;;;;;;11.70;6.40;;;7.50;99.90;;;;;;4173112;28;21026;-78
2021/10/27 02:32:45;;;;;;;14.03;6.60;;;7.50;99.90;;;;;;4168031;28;20553;-78
2021/10/27 02:34:47;;;;;;;11.50;6.47;;;7.50;99.90;;;;;;4151099;28;20460;-78
2021/10/27 02:36:49;;;;;;;13.13;6.70;;;7.50;99.90;;;;;;4147553;28;20473;-78
2021/10/27 02:38:50;;;;;;;11.47;6.87;;;7.50;99.90;;;;;;4158251;28;20542;-78
2021/10/27 02:40:52;;;;;;;10.63;6.07;;;7.50;99.90;;;;;;4163757;28;20484;-78
2021/10/27 02:42:55;;;;;;;12.07;6.60;;;7.60;99.90;;;;;;4156279;28;20491;-76
2021/10/27 02:44:57;;;;;;;11.10;5.90;;;7.50;99.90;;;;;;4172586;28;20550;-78
2021/10/27 02:46:59;;;;;;;9.67;6.43;;;7.50;99.90;;;;;;4164231;28;20588;-77
2021/10/27 02:49:01;;;;;;;9.53;6.30;;;7.50;99.90;;;;;;4162703;28;20500;-77
2021/10/27 02:51:02;;;;;;;14.97;7.07;;;7.50;99.90;;;;;;4157157;28;20478;-76
2021/10/27 02:53:05;;;;;;;9.77;6.10;;;7.50;99.90;;;;;;4162719;28;20847;-77
2021/10/27 02:55:07;;;;;;;11.03;6.47;;;7.50;99.90;;;;;;4168086;28;20495;-78
2021/10/27 02:57:09;;;;;;;11.47;6.27;;;7.50;99.90;;;;;;4157898;28;20848;-78
2021/10/27 02:59:12;;;;;;;10.63;6.10;;;7.50;99.90;;;;;;4162577;28;20887;-76
2021/10/27 03:01:14;;;;;;;14.13;7.33;;;7.50;99.90;;;;;;4163816;28;20453;-78
2021/10/27 03:03:15;;;;;;;12.67;7.43;;;7.50;99.90;;;;;;4163141;28;20477;-78
2021/10/27 03:05:17;;;;;;;14.07;7.30;;;7.40;99.90;;;;;;4162752;28;20510;-77
2021/10/27 03:07:19;;;;;;;10.57;6.40;;;7.50;99.90;;;;;;4156231;28;20475;-78
2021/10/27 03:09:21;;;;;;;10.80;6.50;;;7.50;99.90;;;;;;4157380;28;20503;-76
2021/10/27 03:11:22;;;;;;;16.57;7.77;;;7.50;99.90;;;;;;4164835;28;20459;-78
2021/10/27 03:13:24;;;;;;;13.27;7.90;;;7.50;99.90;;;;;;4166784;28;20499;-78
2021/10/27 03:15:27;;;;;;;14.60;8.47;;;7.50;99.90;;;;;;4157066;28;20480;-78
2021/10/27 03:17:29;;;;;;;15.10;7.80;;;7.50;99.90;;;;;;4168534;28;20456;-77
2021/10/27 03:19:31;;;;;;;16.40;8.57;;;7.60;99.90;;;;;;4171699;28;20444;-75
2021/10/27 03:21:32;;;;;;;13.93;8.43;;;7.50;99.90;;;;;;4169342;28;20464;-78
2021/10/27 03:23:34;;;;;;;14.30;8.57;;;7.60;99.90;;;;;;4172589;28;20498;-78
2021/10/27 03:25:36;;;;;;;13.17;7.73;;;7.60;99.90;;;;;;4168063;28;20460;-77
2021/10/27 03:27:38;;;;;;;15.27;7.50;;;7.60;99.90;;;;;;4175862;28;20432;-78
2021/10/27 03:29:39;;;;;;;14.03;7.40;;;7.60;99.90;;;;;;4179714;28;20871;-77
2021/10/27 03:31:42;;;;;;;15.43;8.07;;;7.60;99.90;;;;;;4171464;28;20467;-77
2021/10/27 03:33:44;;;;;;;14.70;7.90;;;7.60;99.90;;;;;;4160075;28;20525;-77
2021/10/27 03:35:46;;;;;;;15.73;7.83;;;7.60;99.90;;;;;;4149710;28;20791;-76
2021/10/27 03:37:48;;;;;;;13.63;8.00;;;7.60;99.90;;;;;;4151786;28;20511;-76
2021/10/27 03:39:51;;;;;;;15.97;8.33;;;7.60;99.90;;;;;;4161968;28;20507;-77
2021/10/27 03:41:52;;;;;;;15.00;7.83;;;7.60;99.90;;;;;;4165194;28;20467;-77
2021/10/27 03:43:54;;;;;;;13.97;8.23;;;7.60;99.90;;;;;;4166370;28;20461;-77
2021/10/27 03:45:56;;;;;;;13.70;8.20;;;7.60;99.90;;;;;;4168075;28;20902;-78
2021/10/27 03:47:59;;;;;;;13.87;8.50;;;7.60;99.90;;;;;;4172360;28;20472;-76
2021/10/27 03:50:03;;;;;;;13.63;7.90;;;7.60;99.90;;;;;;4169608;28;20499;-78
2021/10/27 03:52:05;;;;;;;13.83;7.80;;;7.60;99.90;;;;;;4165516;28;20501;-78
2021/10/27 03:54:07;;;;;;;13.70;8.03;;;7.60;99.90;;;;;;4165300;28;20483;-78
2021/10/27 03:56:09;;;;;;;15.97;7.73;;;7.60;99.90;;;;;;4160828;28;20521;-77
2021/10/27 03:58:10;;;;;;;11.40;7.20;;;7.60;99.90;;;;;;4165804;28;20467;-78
2021/10/27 04:00:14;;;;;;;14.00;7.43;;;7.60;99.90;;;;;;4163745;28;20474;-77
2021/10/27 04:02:15;;;;;;;12.90;7.90;;;7.60;99.90;;;;;;4164814;28;20603;-78
2021/10/27 04:04:18;;;;;;;15.10;8.43;;;7.60;99.90;;;;;;4172174;28;20467;-78
2021/10/27 04:06:20;;;;;;;14.20;7.73;;;7.60;99.90;;;;;;4169195;28;20871;-76
2021/10/27 04:08:22;;;;;;;14.97;7.67;;;7.60;99.90;;;;;;4167005;28;20472;-77
2021/10/27 04:10:24;;;;;;;13.63;8.03;;;7.60;99.90;;;;;;4166840;28;20554;-77
2021/10/27 04:12:26;;;;;;;14.30;8.47;;;7.50;99.90;;;;;;4169636;28;20509;-76
2021/10/27 04:14:28;;;;;;;16.47;8.23;;;7.60;99.90;;;;;;4168589;28;20465;-76
2021/10/27 04:16:29;;;;;;;15.80;8.47;;;7.60;99.90;;;;;;4166996;28;20845;-76
2021/10/27 04:18:31;;;;;;;17.93;8.60;;;7.60;99.90;;;;;;4162957;28;20464;-76
2021/10/27 04:20:34;;;;;;;14.57;8.43;;;7.60;99.90;;;;;;4161053;28;20537;-76
2021/10/27 04:22:38;;;;;;;17.77;9.00;;;7.60;99.90;;;;;;4168343;28;20495;-77
2021/10/27 04:24:40;;;;;;;16.53;8.07;;;7.60;99.90;;;;;;4173497;28;20464;-77
2021/10/27 04:26:42;;;;;;;14.77;8.03;;;7.60;99.90;;;;;;4161595;28;20465;-77
2021/10/27 04:28:44;;;;;;;13.40;8.03;;;7.60;99.90;;;;;;4156882;28;20469;-77
2021/10/27 04:30:45;;;;;;;15.00;8.03;;;7.80;99.90;;;;;;4168927;28;20461;-78
2021/10/27 04:32:47;;;;;;;14.10;8.00;;;7.60;99.90;;;;;;4170184;28;20495;-77
2021/10/27 04:34:50;;;;;;;16.27;7.70;;;7.60;99.90;;;;;;4166318;28;20523;-76
2021/10/27 04:36:53;;;;;;;18.33;8.47;;;7.70;99.90;;;;;;4175494;28;20468;-77
2021/10/27 04:38:55;;;;;;;15.93;8.00;;;7.70;99.90;;;;;;4168341;28;20481;-77
2021/10/27 04:40:56;;;;;;;16.10;8.60;;;7.80;99.90;;;;;;4165261;28;20453;-76
2021/10/27 04:42:58;;;;;;;14.87;8.23;;;7.70;99.90;;;;;;4167918;28;20535;-78
2021/10/27 04:45:00;;;;;;;12.47;7.50;;;7.70;99.90;;;;;;4172254;28;20941;-76
2021/10/27 04:47:03;;;;;;;13.43;8.13;;;7.80;99.90;;;;;;4169359;28;20456;-76
2021/10/27 04:49:05;;;;;;;12.80;7.10;;;7.80;99.90;;;;;;4173400;28;20527;-77
2021/10/27 04:51:07;;;;;;;17.63;8.57;;;7.80;99.90;;;;;;4171776;28;20461;-78
2021/10/27 04:53:18;;;;;;;12.97;7.30;;;7.80;99.90;;;;;;4170554;28;20503;-77
2021/10/27 04:55:19;;;;;;;13.53;7.87;;;7.80;99.90;;;;;;4154425;28;20461;-77
2021/10/27 04:57:21;;;;;;;13.90;7.73;;;7.80;99.90;;;;;;4170892;28;20473;-77
2021/10/27 04:59:23;;;;;;;11.37;7.13;;;7.80;99.90;;;;;;4165141;28;20464;-76
2021/10/27 05:01:25;;;;;;;15.73;8.20;;;7.80;99.90;;;;;;4169258;28;20473;-81
2021/10/27 05:03:27;;;;;;;14.33;8.43;;;7.80;99.90;;;;;;4165131;28;20483;-78
2021/10/27 05:05:28;;;;;;;14.47;8.60;;;7.90;99.90;;;;;;4162269;28;20467;-77
2021/10/27 05:07:30;;;;;;;15.60;8.90;;;7.90;99.90;;;;;;4163494;28;20534;-77
2021/10/27 05:09:33;;;;;;;15.23;8.47;;;7.90;99.90;;;;;;4164077;28;21031;-78
2021/10/27 05:11:35;;;;;;;18.10;8.70;;;8.00;99.90;;;;;;4163770;28;20518;-77
2021/10/27 05:13:37;;;;;;;11.97;7.77;;;8.00;99.90;;;;;;4163299;28;20481;-76
2021/10/27 05:15:38;;;;;;;15.77;8.20;;;8.00;99.90;;;;;;4163277;28;20527;-77
2021/10/27 05:17:40;;;;;;;14.43;7.93;;;8.00;99.90;;;;;;4164405;28;20510;-77
2021/10/27 05:19:43;;;;;;;13.37;7.47;;;8.00;99.90;;;;;;4164743;28;20956;-77
2021/10/27 05:21:45;;;;;;;15.00;8.10;;;8.10;99.90;;;;;;4174850;28;20475;-77
2021/10/27 05:23:47;;;;;;;15.87;8.03;;;8.10;99.90;;;;;;4157763;28;20468;-76
2021/10/27 05:25:50;;;;;;;13.40;7.67;;;8.10;99.90;;;;;;4162488;28;20450;-77
2021/10/27 05:27:52;;;;;;;13.73;7.63;;;8.10;99.90;;;;;;4163840;28;20465;-78
2021/10/27 05:29:54;;;;;;;16.47;8.23;;;8.20;99.90;;;;;;4160919;28;20492;-77
2021/10/27 05:31:56;;;;;;;14.67;7.80;;;8.20;99.90;;;;;;4162582;28;20461;-78
2021/10/27 05:33:58;;;;;;;17.17;8.33;;;8.20;99.90;;;;;;4161420;28;20454;-78
2021/10/27 05:35:59;;;;;;;15.77;7.73;;;8.20;99.90;;;;;;4165869;28;20465;-76
2021/10/27 05:38:02;;;;;;;12.90;7.17;;;8.20;99.90;;;;;;4169934;28;20456;-78
2021/10/27 05:40:04;;;;;;;15.03;8.00;;;8.30;99.90;;;;;;4173753;28;20523;-78
2021/10/27 05:42:11;;;;;;;13.50;7.37;;;8.30;99.90;;;;;;4156271;28;20540;-78
2021/10/27 05:44:12;;;;;;;18.57;8.27;;;8.40;99.90;;;;;;4167860;28;20471;-78
2021/10/27 05:46:17;;;;;;;12.67;7.33;;;8.30;99.90;;;;;;4164994;28;20540;-77
2021/10/27 05:48:20;;;;;;;13.70;7.43;;;8.40;99.90;;;;;;4164426;28;20477;-78
2021/10/27 05:50:27;;;;;;;16.30;8.13;;;8.40;99.90;;;;;;4166213;28;20489;-78
2021/10/27 05:55:06;;;;;;;14.80;7.97;;;8.50;99.90;;;;;;4163026;28;20456;-78
2021/10/27 05:57:10;;;;;;;11.10;6.40;;;8.50;99.90;;;;;;4163195;28;20873;-76
2021/10/27 05:59:12;;;;;;;13.40;7.03;;;8.50;99.90;;;;;;4163059;28;20474;-78
2021/10/27 06:01:14;;;;;;;9.60;6.03;;;8.50;99.90;;;;;;4162755;28;20488;-75
2021/10/27 06:03:16;;;;;;;10.63;6.23;;;8.50;99.90;;;;;;4161051;28;20474;-77
2021/10/27 06:05:17;;;;;;;11.67;6.60;;;8.50;99.90;;;;;;4154044;28;20441;-75
2021/10/27 06:07:19;;;;;;;12.63;6.67;;;8.50;99.90;;;;;;4162531;28;20458;-77
2021/10/27 06:09:21;;;;;;;12.97;6.47;;;8.60;99.90;;;;;;4163045;28;20445;-78
2021/10/27 06:11:23;;;;;;;9.83;6.10;;;8.60;99.90;;;;;;4163669;28;20557;-76
2021/10/27 06:13:32;;;;;;;10.43;6.00;;;8.60;99.90;;;;;;4163530;28;21904;-78
2021/10/27 06:15:35;;;;;;;12.50;6.97;;;8.60;99.90;;;;;;4164388;28;20461;-76
2021/10/27 06:17:37;;;;;;;9.43;6.03;;;8.70;99.90;;;;;;4163498;28;20461;-77
2021/10/27 06:19:40;;;;;;;14.30;6.47;;;8.70;99.90;;;;;;4152530;28;20457;-77
2021/10/27 06:21:41;;;;;;;12.93;6.37;;;8.70;99.90;;;;;;4163083;28;20967;-77
2021/10/27 06:23:43;;;;;;;11.67;6.00;;;8.70;99.90;;;;;;4162923;28;20538;-77
2021/10/27 06:25:46;;;;;;;10.17;6.07;;;8.70;99.90;;;;;;4163635;28;20795;-77
2021/10/27 06:27:51;;;;;;;9.67;5.63;;;8.80;99.90;;;;;;4176722;28;20548;-77
2021/10/27 06:29:56;;;;;;;13.80;6.50;;;8.80;99.90;;;;;;4175817;28;20920;-76
2021/10/27 06:32:08;;;;;;;12.63;5.93;;;8.80;99.90;;;;;;4173944;28;20518;-78
2021/10/27 06:34:23;;;;;;;11.27;5.73;;;8.80;99.90;;;;;;4173971;28;20458;-78
2021/10/27 06:36:29;;;;;;;10.80;5.53;;;8.80;99.90;;;;;;4170507;28;20818;-76
2021/10/27 06:38:53;;;;;;;9.13;5.63;;;8.80;99.90;;;;;;4180206;28;20501;-77
2021/10/27 06:47:54;;;;;;;10.53;6.10;;;8.90;99.90;;;;;;4167202;28;20821;-77
2021/10/27 06:49:55;;;;;;;11.07;6.03;;;8.90;99.90;;;;;;4163463;28;20547;-78
2021/10/27 06:51:57;;;;;;;11.10;5.90;;;9.00;99.90;;;;;;4164163;28;20458;-77
2021/10/27 06:53:59;;;;;;;8.50;5.30;;;9.00;99.90;;;;;;4152897;28;20474;-78
2021/10/27 06:56:00;;;;;;;8.83;5.57;;;9.00;99.90;;;;;;4163616;28;20462;-78
2021/10/27 06:58:02;;;;;;;10.33;4.87;;;9.00;99.90;;;;;;4158406;28;20513;-77
2021/10/27 07:00:14;;;;;;;8.17;5.10;;;9.00;99.90;;;;;;4156348;28;20490;-78
2021/10/27 07:05:02;;;;;;;11.77;4.93;;;9.10;99.90;;;;;;4147314;28;20527;-77
2021/10/27 07:16:32;;;;;;;10.03;5.33;;;9.20;99.90;;;;;;4150012;28;20437;-85
2021/10/27 07:18:39;;;;;;;11.50;5.47;;;9.20;99.90;;;;;;4146804;28;20451;-85
2021/10/27 07:20:40;;;;;;;10.83;5.70;;;9.80;99.90;;;;;;4148719;28;20979;-85
2021/10/27 07:22:43;;;;;;;9.33;4.77;;;9.30;99.90;;;;;;4150264;28;20478;-85
2021/10/27 07:24:45;;;;;;;10.90;5.60;;;9.30;99.90;;;;;;4150228;28;20669;-85
2021/10/27 07:26:48;;;;;;;10.43;4.87;;;9.30;99.90;;;;;;4150621;28;20462;-85
2021/10/27 07:28:53;;;;;;;13.13;5.10;;;9.40;99.90;;;;;;4149899;28;20463;-85
2021/10/27 07:30:56;;;;;;;12.30;5.13;;;9.40;99.90;;;;;;4149672;28;20513;-85
2021/10/27 07:32:58;;;;;;;7.40;4.57;;;9.40;99.90;;;;;;4150013;28;20520;-86
2021/10/27 07:35:12;;;;;;;9.77;4.37;;;9.50;99.90;;;;;;4149371;28;20469;-86
2021/10/27 07:39:56;;;;;;;10.47;4.43;;;9.50;99.90;;;;;;4133592;28;20498;-85
2021/10/27 07:41:58;;;;;;;10.10;4.17;;;9.60;99.90;;;;;;4141422;28;20223;-85
2021/10/27 07:44:03;;;;;;;10.03;4.73;;;9.60;99.90;;;;;;4145605;28;20255;-85
2021/10/27 07:46:05;;;;;;;8.57;4.53;;;9.90;99.90;;;;;;4159551;28;20546;-85
2021/10/27 07:48:08;;;;;;;8.43;4.57;;;9.60;99.90;;;;;;4151929;28;20462;-84
2021/10/27 07:50:11;;;;;;;10.43;5.00;;;9.70;99.90;;;;;;4148769;28;20235;-83
2021/10/27 07:52:13;;;;;;;9.10;4.90;;;9.70;99.90;;;;;;4145879;28;20208;-84
2021/10/27 07:54:15;;;;;;;10.43;5.00;;;9.80;99.90;;;;;;4148852;28;20224;-84
2021/10/27 07:56:17;;;;;;;6.47;4.30;;;9.80;99.90;;;;;;4147254;28;20220;-83
2021/10/27 07:58:21;;;;;;;7.13;4.30;;;9.80;99.90;;;;;;4149251;28;20503;-84
2021/10/27 08:00:24;;;;;;;9.40;4.77;;;9.80;99.90;;;;;;4149763;28;20270;-84
2021/10/27 08:02:28;;;;;;;9.33;3.70;;;9.80;99.90;;;;;;4153468;28;20705;-84
2021/10/27 08:04:30;;;;;;;8.17;4.37;;;10.40;99.90;;;;;;4152593;28;20215;-83
2021/10/27 08:06:33;;;;;;;11.50;3.97;;;9.90;99.90;;;;;;4152481;28;20203;-83
2021/10/27 08:08:35;;;;;;;10.97;4.20;;;10.10;99.90;;;;;;4153088;28;20231;-83
2021/10/27 08:10:37;;;;;;;8.07;3.70;;;9.90;99.90;;;;;;4153336;28;20236;-83
2021/10/27 08:12:40;;;;;;;5.93;3.60;;;10.00;99.90;;;;;;4153053;28;20208;-83
2021/10/27 08:14:42;;;;;;;7.67;4.27;;;10.00;99.90;;;;;;4153795;28;20208;-83
2021/10/27 08:16:45;;;;;;;6.77;4.40;;;10.00;99.90;;;;;;4156150;28;20220;-84
2021/10/27 08:18:46;;;;;;;10.80;4.77;;;10.10;99.90;;;;;;4152406;28;20291;-84
2021/10/27 08:20:50;;;;;;;13.27;4.70;;;10.10;99.90;;;;;;4148384;28;20220;-84
2021/10/27 08:22:56;;;;;;;10.80;5.50;;;10.20;99.90;;;;;;4149364;28;20247;-84
2021/10/27 08:24:59;;;;;;;8.97;4.57;;;10.20;99.90;;;;;;4146140;28;20208;-84
2021/10/27 08:27:06;;;;;;;10.37;4.33;;;10.40;99.90;;;;;;4153182;28;20215;-84
2021/10/27 08:29:13;;;;;;;6.73;4.00;;;10.20;99.90;;;;;;4158811;28;20986;-83
2021/10/27 08:31:25;;;;;;;6.27;3.70;;;10.40;99.90;;;;;;4157216;28;20232;-83
2021/10/27 08:33:38;;;;;;;8.30;3.57;;;10.30;99.90;;;;;;4152331;28;20236;-83
2021/10/27 08:35:40;;;;;;;5.80;3.20;;;10.70;99.90;;;;;;4152823;28;20214;-83
2021/10/27 08:37:45;;;;;;;10.40;3.70;;;10.40;99.90;;;;;;4150533;28;20219;-85
2021/10/27 08:39:51;;;;;;;6.77;3.37;;;10.40;99.90;;;;;;4149838;28;20204;-85
2021/10/27 08:41:52;;;;;;;7.70;3.33;;;10.40;99.90;;;;;;4150045;28;20247;-85
2021/10/27 08:43:54;;;;;;;9.83;3.50;;;10.50;99.90;;;;;;4150503;28;20243;-85
2021/10/27 08:45:57;;;;;;;8.70;3.50;;;10.50;99.90;;;;;;4148987;28;20220;-85
2021/10/27 08:47:59;;;;;;;9.07;3.27;;;10.60;99.90;;;;;;4133905;28;20216;-85
2021/10/27 08:50:03;;;;;;;5.70;3.50;;;10.60;99.90;;;;;;4136059;28;20235;-85
2021/10/27 08:52:09;;;;;;;7.13;3.43;;;10.60;99.90;;;;;;4145443;28;20263;-85
2021/10/27 08:54:12;;;;;;;7.97;3.50;;;10.60;99.90;;;;;;4150165;28;20231;-85
2021/10/27 08:56:15;;;;;;;8.93;3.83;;;10.70;99.90;;;;;;4149180;28;20220;-84
2021/10/27 08:58:25;;;;;;;8.37;3.50;;;10.70;99.90;;;;;;4140533;28;20272;-84
2021/10/27 09:00:30;;;;;;;6.30;3.57;;;10.70;99.90;;;;;;4143803;28;20251;-85
2021/10/27 09:02:54;;;;;;;6.40;3.80;;;10.80;99.90;;;;;;4148210;28;20238;-84
2021/10/27 09:05:11;;;;;;;6.07;3.63;;;10.70;99.90;;;;;;4141446;28;20441;-84
2021/10/27 09:07:22;;;;;;;5.47;3.40;;;10.80;99.90;;;;;;4150091;28;20260;-85
2021/10/27 09:35:33;;;;;;;6.80;3.20;;;11.10;99.90;;;;;;4148632;28;20665;-85
2021/10/27 09:38:01;;;;;;;6.37;3.00;;;11.20;99.90;;;;;;4147071;28;20252;-84
2021/10/27 09:42:38;;;;;;;5.37;2.93;;;11.30;99.90;;;;;;4135667;28;20292;-84
2021/10/27 09:44:53;;;;;;;5.30;2.77;;;11.40;99.90;;;;;;4149933;28;20253;-85
2021/10/27 10:09:45;;;;;;;4.50;3.47;;;12.00;99.90;;;;;;4147119;23;20242;-86
2021/10/27 10:11:48;;;;;;;5.70;3.23;;;12.10;99.90;;;;;;4144748;28;20239;-86
2021/10/27 10:13:51;;;;;;;5.67;3.10;;;12.20;99.90;;;;;;4148186;28;20654;-85
2021/10/27 10:15:53;;;;;;;4.00;2.80;;;12.30;99.90;;;;;;4127109;28;20224;-85
2021/10/27 10:17:56;;;;;;;5.67;3.20;;;12.40;99.90;;;;;;4120420;28;20219;-85
2021/10/27 10:19:58;;;;;;;4.80;2.70;;;12.40;99.90;;;;;;4130325;28;20621;-85
2021/10/27 10:22:00;;;;;;;3.80;2.50;;;12.50;99.90;;;;;;4174536;23;20238;-75
2021/10/27 10:24:42;;;;;;;6.80;2.37;;;12.50;99.90;;;;;;4161424;28;20217;-75
2021/10/27 10:26:46;;;;;;;3.53;2.10;;;12.60;99.90;;;;;;4163303;28;20213;-75
2021/10/27 10:28:47;;;;;;;5.63;2.40;;;12.70;99.90;;;;;;4162445;28;20210;-77
2021/10/27 10:30:53;;;;;;;4.03;2.43;;;12.70;99.90;;;;;;4162067;28;20749;-76
2021/10/27 10:33:08;;;;;;;4.67;2.50;;;12.80;99.90;;;;;;4146301;28;20211;-76
2021/10/27 10:35:13;;;;;;;5.03;2.37;;;12.80;99.90;;;;;;4152319;28;20742;-75
2021/10/27 10:37:29;;;;;;;4.90;2.60;;;12.90;99.90;;;;;;4151493;28;20715;-75
2021/10/27 10:39:45;;;;;;;7.50;2.80;;;12.90;99.90;;;;;;4153368;28;20213;-76
2021/10/27 10:59:54;;;;;;;3.37;1.77;;;13.40;99.90;;;;;;4095019;28;20698;-76
2021/10/27 11:24:12;;;;;;;3.97;2.10;;;14.50;99.90;;;;;;4081068;28;20216;-74
2021/10/27 11:26:36;;;;;;;3.20;1.90;;;14.60;99.90;;;;;;4157613;28;20715;-74
2021/10/27 11:38:39;;;;;;;2.60;1.70;;;14.90;99.90;;;;;;4045918;29;20309;-76
2021/10/27 11:40:43;;;;;;;3.50;1.60;;;15.00;99.90;;;;;;4079433;29;20268;-76
2021/10/27 11:42:48;;;;;;;2.63;1.73;;;15.00;99.90;;;;;;4083497;28;20220;-74
2021/10/27 11:44:53;;;;;;;3.80;1.90;;;15.00;99.90;;;;;;4150067;28;20211;-75
2021/10/27 11:46:59;;;;;;;2.40;1.60;;;15.00;99.90;;;;;;4149365;28;20639;-76
2021/10/27 11:49:10;;;;;;;2.23;1.50;;;15.00;99.90;;;;;;4151237;28;20676;-76
2021/10/27 11:51:13;;;;;;;3.80;1.43;;;15.00;99.90;;;;;;4155861;28;20274;-75
2021/10/27 11:53:22;;;;;;;5.90;1.60;;;15.00;99.90;;;;;;4150820;28;20206;-74
2021/10/27 11:55:31;;;;;;;3.47;1.63;;;15.00;99.90;;;;;;4150378;28;20678;-74
2021/10/27 11:57:33;;;;;;;3.13;1.80;;;15.00;99.90;;;;;;4157488;28;20277;-75
2021/10/27 11:59:45;;;;;;;1.93;1.43;;;15.00;99.90;;;;;;4164546;28;20219;-75
2021/10/27 12:01:51;;;;;;;2.77;1.60;;;15.00;99.90;;;;;;4165046;28;20229;-74
2021/10/27 12:03:53;;;;;;;3.00;1.70;;;15.00;99.90;;;;;;4160156;28;20211;-74
2021/10/27 12:05:58;;;;;;;2.53;1.90;;;15.00;99.90;;;;;;4154590;28;20213;-74
2021/10/27 12:08:21;;;;;;;3.90;1.73;;;14.90;99.90;;;;;;4165410;28;20212;-74
2021/10/27 12:10:29;;;;;;;4.23;1.60;;;14.90;99.90;;;;;;4163722;28;20204;-74
2021/10/27 12:12:55;;;;;;;3.50;1.43;;;14.90;99.90;;;;;;4166758;28;20688;-75
2021/10/27 12:15:09;;;;;;;3.27;1.37;;;14.90;99.90;;;;;;4165469;28;20212;-75
2021/10/27 12:17:23;;;;;;;2.93;1.43;;;14.90;99.90;;;;;;4168539;28;20685;-75
2021/10/27 12:19:28;;;;;;;2.53;1.67;;;14.90;99.90;;;;;;4161376;28;20204;-75
2021/10/27 12:21:32;;;;;;;4.37;1.50;;;14.80;99.90;;;;;;4150278;28;20329;-76
2021/10/27 12:23:34;;;;;;;1.83;1.40;;;14.80;99.90;;;;;;4160213;28;20207;-75
2021/10/27 12:25:36;;;;;;;4.03;1.90;;;14.80;99.90;;;;;;4152494;28;20267;-74
2021/10/27 12:27:44;;;;;;;3.97;1.60;;;14.90;99.90;;;;;;4155720;28;20277;-74
2021/10/27 12:29:52;;;;;;;4.53;1.40;;;14.90;99.90;;;;;;4159616;28;20825;-74
2021/10/27 12:32:09;;;;;;;4.87;1.50;;;14.80;99.90;;;;;;4153709;28;20231;-74
2021/10/27 12:34:26;;;;;;;2.43;1.30;;;14.90;99.90;;;;;;4154633;28;20221;-74
2021/10/27 12:36:29;;;;;;;3.13;1.40;;;14.90;99.90;;;;;;4157542;28;20205;-74
2021/10/27 12:38:35;;;;;;;2.77;1.50;;;14.90;99.90;;;;;;4152125;28;20216;-74
2021/10/27 12:40:40;;;;;;;2.57;1.57;;;14.90;99.90;;;;;;4150096;28;20221;-75
2021/10/27 12:42:42;;;;;;;3.03;1.20;;;15.00;99.90;;;;;;4149266;28;20221;-77
2021/10/27 12:44:49;;;;;;;3.00;1.40;;;15.00;99.90;;;;;;4160996;28;20217;-75
2021/10/27 12:47:12;;;;;;;1.60;1.23;;;15.00;99.90;;;;;;4164456;28;20218;-75
2021/10/27 12:49:21;;;;;;;2.30;1.20;;;15.10;99.90;;;;;;4161155;28;20649;-74
2021/10/27 12:51:31;;;;;;;2.10;1.10;;;15.10;99.90;;;;;;4148204;28;20267;-75
2021/10/27 12:53:37;;;;;;;1.63;1.20;;;15.20;99.90;;;;;;4163958;28;20225;-74